Terminal Aerodrome Forecast
Issued by NWS

Home | Current Version | Previous Version | Text Only | Print | Product List | Glossary On
Versions: 1 2 3 4 5 6 7 8 9 10 11 12 13 14 15 16 17 18 19 20 21 22 23 24 25
000
FTUS45 KPSR 230500 RRA
TAFIWA
TAF
KIWA 230541Z 2306/2406 12005KT P6SM FEW250
     FM231900 32010KT P6SM FEW250
     FM240400 09007KT P6SM FEW250
      AMD LTD TO CLD VIS AND WIND TIL 231300=

USA.gov is the U.S. government's official web portal to all federal, state and local government web resources and services.